Aurora Springs, Missouri
Current Conditions -  °F | °C
As of 5:55 PM on Friday 24 Oct 2014 (Local Time) from KAIZ Reporting Station
Broken Clouds Broken Clouds  
Wind Chill: 73°   Ceiling: 6000
Heat Index: 73°   Visibility: 10mi
Dew Point: 59°   Wind: 9mph
Humidity: 61%   Direction: 200°SSW
Pressure: 30.01"   Gusts: NA
Location:  38.333°N, 92.5524°W
Report Text: KAIZ 242255Z AUTO 20008KT 10SM BKN060 23/15 A3001 RMK AO1
Loading
Personal Weather Stations






























Interactive Weather Map
Tropical Storm Tracking
New forecast layout! Learn more

10-Day Weather Forecast

Advertisements
Track Severe Weather on mobile